sensor_id;sensor_type;location;lat;lon;timestamp;pressure;altitude;pressure_sealevel;temperature;humidity
18533;BME280;9396;51.510;11.934;2022-09-06T00:00:08;100842.09;;;18.72;84.55
18533;BME280;9396;51.510;11.934;2022-09-06T00:02:34;100848.72;;;18.76;84.75
18533;BME280;9396;51.510;11.934;2022-09-06T00:05:03;100849.75;;;19.03;84.33
18533;BME280;9396;51.510;11.934;2022-09-06T00:07:30;100842.00;;;19.21;83.42
18533;BME280;9396;51.510;11.934;2022-09-06T00:09:57;100848.78;;;19.38;82.58
18533;BME280;9396;51.510;11.934;2022-09-06T00:12:24;100835.09;;;19.40;82.23
18533;BME280;9396;51.510;11.934;2022-09-06T00:14:51;100862.13;;;19.53;81.85
18533;BME280;9396;51.510;11.934;2022-09-06T00:17:18;100864.03;;;19.59;81.67
18533;BME280;9396;51.510;11.934;2022-09-06T00:19:45;100868.56;;;19.52;81.80
18533;BME280;9396;51.510;11.934;2022-09-06T00:22:13;100868.16;;;19.55;81.36
18533;BME280;9396;51.510;11.934;2022-09-06T00:24:40;100864.22;;;19.51;81.52
18533;BME280;9396;51.510;11.934;2022-09-06T00:27:07;100831.31;;;19.06;82.25
18533;BME280;9396;51.510;11.934;2022-09-06T00:29:34;100867.91;;;19.15;82.21
18533;BME280;9396;51.510;11.934;2022-09-06T00:32:01;100863.53;;;19.14;82.43
18533;BME280;9396;51.510;11.934;2022-09-06T00:34:28;100864.25;;;19.30;81.97
18533;BME280;9396;51.510;11.934;2022-09-06T00:36:54;100855.84;;;19.11;82.14
18533;BME280;9396;51.510;11.934;2022-09-06T00:39:22;100859.63;;;19.17;82.22
18533;BME280;9396;51.510;11.934;2022-09-06T00:41:49;100852.28;;;19.04;82.44
18533;BME280;9396;51.510;11.934;2022-09-06T00:44:16;100862.31;;;18.89;82.84
18533;BME280;9396;51.510;11.934;2022-09-06T00:46:45;100855.84;;;19.11;82.25
18533;BME280;9396;51.510;11.934;2022-09-06T00:49:15;100866.25;;;19.14;81.80
18533;BME280;9396;51.510;11.934;2022-09-06T00:51:49;100862.59;;;19.29;81.95
18533;BME280;9396;51.510;11.934;2022-09-06T00:54:16;100864.75;;;19.40;81.60
18533;BME280;9396;51.510;11.934;2022-09-06T00:56:44;100859.78;;;19.09;81.99
18533;BME280;9396;51.510;11.934;2022-09-06T00:59:12;100864.78;;;18.84;82.49
18533;BME280;9396;51.510;11.934;2022-09-06T01:01:39;100863.59;;;18.93;82.18
18533;BME280;9396;51.510;11.934;2022-09-06T01:04:06;100866.56;;;19.05;81.86
18533;BME280;9396;51.510;11.934;2022-09-06T01:06:41;100872.47;;;19.15;81.73
18533;BME280;9396;51.510;11.934;2022-09-06T01:09:20;100867.09;;;19.15;81.26
18533;BME280;9396;51.510;11.934;2022-09-06T01:12:02;100864.69;;;18.99;81.98
18533;BME280;9396;51.510;11.934;2022-09-06T01:14:40;100866.19;;;18.80;82.76
18533;BME280;9396;51.510;11.934;2022-09-06T01:17:20;100854.72;;;18.72;82.44
18533;BME280;9396;51.510;11.934;2022-09-06T01:20:15;100859.63;;;18.89;82.29
18533;BME280;9396;51.510;11.934;2022-09-06T01:23:21;100847.53;;;18.79;82.20
18533;BME280;9396;51.510;11.934;2022-09-06T01:26:02;100856.50;;;18.58;83.24
18533;BME280;9396;51.510;11.934;2022-09-06T01:28:35;100855.84;;;18.84;82.83
18533;BME280;9396;51.510;11.934;2022-09-06T01:31:17;100860.75;;;19.01;82.08
18533;BME280;9396;51.510;11.934;2022-09-06T01:33:50;100861.25;;;19.11;81.38
18533;BME280;9396;51.510;11.934;2022-09-06T01:36:23;100850.22;;;18.79;82.41
18533;BME280;9396;51.510;11.934;2022-09-06T01:38:51;100854.78;;;18.78;82.59
18533;BME280;9396;51.510;11.934;2022-09-06T01:41:17;100855.13;;;18.96;81.99
18533;BME280;9396;51.510;11.934;2022-09-06T01:43:47;100850.06;;;19.14;81.47
18533;BME280;9396;51.510;11.934;2022-09-06T01:46:19;100857.59;;;19.26;81.03
18533;BME280;9396;51.510;11.934;2022-09-06T01:51:57;100863.19;;;19.24;80.71
18533;BME280;9396;51.510;11.934;2022-09-06T01:54:40;100858.28;;;19.34;80.63
18533;BME280;9396;51.510;11.934;2022-09-06T01:57:21;100860.59;;;19.37;80.71
18533;BME280;9396;51.510;11.934;2022-09-06T02:00:02;100868.91;;;19.08;81.43
18533;BME280;9396;51.510;11.934;2022-09-06T02:02:38;100860.56;;;18.75;82.31
18533;BME280;9396;51.510;11.934;2022-09-06T02:05:10;100857.09;;;18.60;82.83
18533;BME280;9396;51.510;11.934;2022-09-06T02:07:41;100855.84;;;18.56;83.11
18533;BME280;9396;51.510;11.934;2022-09-06T02:10:13;100855.00;;;18.83;82.32
18533;BME280;9396;51.510;11.934;2022-09-06T02:12:44;100854.69;;;18.65;82.67
18533;BME280;9396;51.510;11.934;2022-09-06T02:15:18;100850.66;;;18.55;83.24
18533;BME280;9396;51.510;11.934;2022-09-06T02:17:51;100843.59;;;18.54;83.03
18533;BME280;9396;51.510;11.934;2022-09-06T02:20:21;100836.84;;;18.22;84.13
18533;BME280;9396;51.510;11.934;2022-09-06T02:22:52;100833.06;;;18.16;84.04
18533;BME280;9396;51.510;11.934;2022-09-06T02:25:25;100833.00;;;18.10;84.01
18533;BME280;9396;51.510;11.934;2022-09-06T02:27:54;100831.56;;;17.93;84.38
18533;BME280;9396;51.510;11.934;2022-09-06T02:30:22;100831.03;;;17.83;84.98
18533;BME280;9396;51.510;11.934;2022-09-06T02:32:54;100822.72;;;17.78;85.28
18533;BME280;9396;51.510;11.934;2022-09-06T02:35:23;100821.19;;;18.11;84.30
18533;BME280;9396;51.510;11.934;2022-09-06T02:37:50;100829.97;;;18.19;83.64
18533;BME280;9396;51.510;11.934;2022-09-06T02:40:17;100827.84;;;17.94;84.12
18533;BME280;9396;51.510;11.934;2022-09-06T02:42:44;100833.25;;;17.94;84.50
18533;BME280;9396;51.510;11.934;2022-09-06T02:45:10;100827.78;;;18.08;84.24
18533;BME280;9396;51.510;11.934;2022-09-06T02:47:38;100827.72;;;18.23;83.47
18533;BME280;9396;51.510;11.934;2022-09-06T02:50:06;100826.28;;;18.42;83.01
18533;BME280;9396;51.510;11.934;2022-09-06T02:52:33;100830.31;;;18.31;82.51
18533;BME280;9396;51.510;11.934;2022-09-06T02:55:00;100822.09;;;17.97;84.07
18533;BME280;9396;51.510;11.934;2022-09-06T02:57:26;100831.19;;;17.96;84.40
18533;BME280;9396;51.510;11.934;2022-09-06T02:59:53;100822.84;;;17.91;84.12
18533;BME280;9396;51.510;11.934;2022-09-06T03:02:19;100819.78;;;18.15;83.69
18533;BME280;9396;51.510;11.934;2022-09-06T03:04:47;100827.63;;;18.10;83.34
18533;BME280;9396;51.510;11.934;2022-09-06T03:07:14;100828.91;;;18.35;82.89
18533;BME280;9396;51.510;11.934;2022-09-06T03:09:41;100819.28;;;18.47;82.26
18533;BME280;9396;51.510;11.934;2022-09-06T03:12:07;100819.22;;;18.41;82.15
18533;BME280;9396;51.510;11.934;2022-09-06T03:14:34;100811.81;;;18.07;83.04
18533;BME280;9396;51.510;11.934;2022-09-06T03:17:01;100805.59;;;17.85;83.84
18533;BME280;9396;51.510;11.934;2022-09-06T03:19:28;100801.47;;;17.68;84.51
18533;BME280;9396;51.510;11.934;2022-09-06T03:21:56;100790.47;;;17.49;85.50
18533;BME280;9396;51.510;11.934;2022-09-06T03:24:23;100801.41;;;17.33;86.34
18533;BME280;9396;51.510;11.934;2022-09-06T03:26:49;100792.88;;;17.44;85.88
18533;BME280;9396;51.510;11.934;2022-09-06T03:29:16;100794.78;;;17.64;85.03
18533;BME280;9396;51.510;11.934;2022-09-06T03:31:43;100789.88;;;17.68;85.16
18533;BME280;9396;51.510;11.934;2022-09-06T03:34:09;100794.72;;;17.93;84.35
18533;BME280;9396;51.510;11.934;2022-09-06T03:36:36;100790.28;;;18.07;83.92
18533;BME280;9396;51.510;11.934;2022-09-06T03:39:04;100798.44;;;17.92;83.91
18533;BME280;9396;51.510;11.934;2022-09-06T03:41:31;100789.53;;;17.92;83.86
18533;BME280;9396;51.510;11.934;2022-09-06T03:43:58;100791.69;;;17.82;84.34
18533;BME280;9396;51.510;11.934;2022-09-06T03:46:24;100786.91;;;17.63;84.38
18533;BME280;9396;51.510;11.934;2022-09-06T03:48:54;100782.00;;;17.66;84.54
18533;BME280;9396;51.510;11.934;2022-09-06T03:51:21;100781.94;;;17.31;85.64
18533;BME280;9396;51.510;11.934;2022-09-06T03:53:48;100776.22;;;17.19;86.41
18533;BME280;9396;51.510;11.934;2022-09-06T03:56:16;100780.06;;;17.46;85.88
18533;BME280;9396;51.510;11.934;2022-09-06T03:58:42;100783.09;;;17.72;85.13
18533;BME280;9396;51.510;11.934;2022-09-06T04:01:10;100786.22;;;17.75;84.19
18533;BME280;9396;51.510;11.934;2022-09-06T04:03:38;100793.88;;;17.43;85.58
18533;BME280;9396;51.510;11.934;2022-09-06T04:06:05;100789.16;;;17.45;85.41
18533;BME280;9396;51.510;11.934;2022-09-06T04:08:32;100803.41;;;17.74;84.87
18533;BME280;9396;51.510;11.934;2022-09-06T04:10:59;100723.34;;;17.41;83.90
18533;BME280;9396;51.510;11.934;2022-09-06T04:13:28;100807.81;;;17.82;83.99
18533;BME280;9396;51.510;11.934;2022-09-06T04:15:55;100768.03;;;17.42;84.19
18533;BME280;9396;51.510;11.934;2022-09-06T04:18:22;100803.28;;;17.47;85.06
18533;BME280;9396;51.510;11.934;2022-09-06T04:20:51;100804.50;;;17.30;85.65
18533;BME280;9396;51.510;11.934;2022-09-06T04:23:18;100792.50;;;17.32;85.92
18533;BME280;9396;51.510;11.934;2022-09-06T04:25:46;100793.09;;;17.28;86.21
18533;BME280;9396;51.510;11.934;2022-09-06T04:28:13;100792.63;;;17.24;86.50
18533;BME280;9396;51.510;11.934;2022-09-06T04:30:41;100790.84;;;17.46;85.58
18533;BME280;9396;51.510;11.934;2022-09-06T04:33:08;100782.84;;;17.38;85.51
18533;BME280;9396;51.510;11.934;2022-09-06T04:35:34;100784.72;;;17.52;85.57
18533;BME280;9396;51.510;11.934;2022-09-06T04:38:03;100743.66;;;17.29;85.35
18533;BME280;9396;51.510;11.934;2022-09-06T04:40:30;100779.00;;;17.76;84.34
18533;BME280;9396;51.510;11.934;2022-09-06T04:42:57;100764.75;;;17.82;84.03
18533;BME280;9396;51.510;11.934;2022-09-06T04:45:23;100756.38;;;17.70;84.34
18533;BME280;9396;51.510;11.934;2022-09-06T04:47:51;100762.44;;;17.58;84.54
18533;BME280;9396;51.510;11.934;2022-09-06T04:50:18;100766.28;;;17.49;84.81
18533;BME280;9396;51.510;11.934;2022-09-06T04:52:45;100763.03;;;17.39;85.55
18533;BME280;9396;51.510;11.934;2022-09-06T04:55:12;100759.31;;;17.40;85.28
18533;BME280;9396;51.510;11.934;2022-09-06T04:57:38;100764.06;;;17.23;85.78
18533;BME280;9396;51.510;11.934;2022-09-06T05:00:06;100764.16;;;17.15;86.07
18533;BME280;9396;51.510;11.934;2022-09-06T05:02:33;100764.63;;;17.33;85.74
18533;BME280;9396;51.510;11.934;2022-09-06T05:05:02;100755.78;;;17.54;85.51
18533;BME280;9396;51.510;11.934;2022-09-06T05:07:30;100767.81;;;17.58;84.50
18533;BME280;9396;51.510;11.934;2022-09-06T05:09:56;100760.84;;;17.63;84.48
18533;BME280;9396;51.510;11.934;2022-09-06T05:12:23;100757.06;;;17.58;84.41
18533;BME280;9396;51.510;11.934;2022-09-06T05:14:50;100765.63;;;17.47;84.70
18533;BME280;9396;51.510;11.934;2022-09-06T05:17:16;100760.06;;;17.69;84.16
18533;BME280;9396;51.510;11.934;2022-09-06T05:19:43;100760.03;;;17.84;83.65
18533;BME280;9396;51.510;11.934;2022-09-06T05:22:11;100760.22;;;17.61;83.63
18533;BME280;9396;51.510;11.934;2022-09-06T05:24:38;100764.03;;;17.52;84.03
18533;BME280;9396;51.510;11.934;2022-09-06T05:27:05;100768.31;;;17.47;84.53
18533;BME280;9396;51.510;11.934;2022-09-06T05:29:32;100743.09;;;17.33;84.13
18533;BME280;9396;51.510;11.934;2022-09-06T05:31:59;100769.41;;;17.52;84.32
18533;BME280;9396;51.510;11.934;2022-09-06T05:34:25;100765.53;;;17.40;84.55
18533;BME280;9396;51.510;11.934;2022-09-06T05:36:52;100771.00;;;17.47;84.42
18533;BME280;9396;51.510;11.934;2022-09-06T05:39:20;100774.56;;;16.89;86.27
18533;BME280;9396;51.510;11.934;2022-09-06T05:41:47;100778.06;;;16.89;86.40
18533;BME280;9396;51.510;11.934;2022-09-06T05:44:14;100785.59;;;16.79;86.63
18533;BME280;9396;51.510;11.934;2022-09-06T05:46:41;100785.31;;;16.89;86.61
18533;BME280;9396;51.510;11.934;2022-09-06T05:49:10;100777.88;;;17.20;85.83
18533;BME280;9396;51.510;11.934;2022-09-06T05:51:37;100783.25;;;17.35;84.96
18533;BME280;9396;51.510;11.934;2022-09-06T05:54:04;100779.16;;;17.39;84.49
18533;BME280;9396;51.510;11.934;2022-09-06T05:56:32;100787.50;;;17.58;84.04
18533;BME280;9396;51.510;11.934;2022-09-06T05:58:59;100782.66;;;17.54;83.37
18533;BME280;9396;51.510;11.934;2022-09-06T06:01:26;100793.06;;;17.57;83.61
18533;BME280;9396;51.510;11.934;2022-09-06T06:03:55;100790.94;;;17.52;83.98
18533;BME280;9396;51.510;11.934;2022-09-06T06:06:24;100787.13;;;17.47;83.79
18533;BME280;9396;51.510;11.934;2022-09-06T06:08:51;100787.06;;;17.55;83.74
18533;BME280;9396;51.510;11.934;2022-09-06T06:11:17;100784.13;;;17.71;83.22
18533;BME280;9396;51.510;11.934;2022-09-06T06:13:46;100789.09;;;17.53;83.75
18533;BME280;9396;51.510;11.934;2022-09-06T06:16:13;100778.84;;;17.63;83.31
18533;BME280;9396;51.510;11.934;2022-09-06T06:18:41;100781.66;;;17.40;84.70
18533;BME280;9396;51.510;11.934;2022-09-06T06:21:11;100791.50;;;17.33;84.51
18533;BME280;9396;51.510;11.934;2022-09-06T06:23:38;100788.16;;;17.31;84.74
18533;BME280;9396;51.510;11.934;2022-09-06T06:26:06;100785.81;;;17.43;84.79
18533;BME280;9396;51.510;11.934;2022-09-06T06:28:33;100787.13;;;17.47;84.51
18533;BME280;9396;51.510;11.934;2022-09-06T06:31:02;100790.47;;;17.34;84.52
18533;BME280;9396;51.510;11.934;2022-09-06T06:33:29;100785.47;;;17.31;85.30
18533;BME280;9396;51.510;11.934;2022-09-06T06:35:58;100787.59;;;17.36;85.16
18533;BME280;9396;51.510;11.934;2022-09-06T06:38:29;100793.28;;;17.26;85.43
18533;BME280;9396;51.510;11.934;2022-09-06T06:40:56;100790.47;;;17.34;85.49
18533;BME280;9396;51.510;11.934;2022-09-06T06:43:23;100791.78;;;17.53;84.80
18533;BME280;9396;51.510;11.934;2022-09-06T06:45:50;100795.06;;;17.69;84.41
18533;BME280;9396;51.510;11.934;2022-09-06T06:48:18;100787.91;;;17.76;83.79
18533;BME280;9396;51.510;11.934;2022-09-06T06:50:45;100790.66;;;17.62;84.22
18533;BME280;9396;51.510;11.934;2022-09-06T06:53:12;100790.78;;;17.75;84.08
18533;BME280;9396;51.510;11.934;2022-09-06T06:55:38;100784.81;;;17.58;84.21
18533;BME280;9396;51.510;11.934;2022-09-06T06:58:05;100786.19;;;17.90;83.96
18533;BME280;9396;51.510;11.934;2022-09-06T07:00:32;100788.47;;;17.93;83.25
18533;BME280;9396;51.510;11.934;2022-09-06T07:02:58;100789.81;;;17.61;83.73
18533;BME280;9396;51.510;11.934;2022-09-06T07:05:26;100801.44;;;17.47;84.41
18533;BME280;9396;51.510;11.934;2022-09-06T07:07:53;100793.06;;;17.57;84.27
18533;BME280;9396;51.510;11.934;2022-09-06T07:10:20;100791.16;;;17.72;84.07
18533;BME280;9396;51.510;11.934;2022-09-06T07:12:46;100791.47;;;17.62;84.48
18533;BME280;9396;51.510;11.934;2022-09-06T07:15:13;100791.16;;;17.72;84.10
18533;BME280;9396;51.510;11.934;2022-09-06T07:17:40;100790.22;;;17.79;83.72
18533;BME280;9396;51.510;11.934;2022-09-06T07:20:07;100798.94;;;18.02;83.64
18533;BME280;9396;51.510;11.934;2022-09-06T07:22:36;100798.09;;;17.81;83.64
18533;BME280;9396;51.510;11.934;2022-09-06T07:25:03;100806.56;;;17.99;83.76
18533;BME280;9396;51.510;11.934;2022-09-06T07:27:30;100802.38;;;17.75;83.75
18533;BME280;9396;51.510;11.934;2022-09-06T07:29:57;100799.75;;;17.82;83.55
18533;BME280;9396;51.510;11.934;2022-09-06T07:32:24;100807.88;;;18.03;83.40
18533;BME280;9396;51.510;11.934;2022-09-06T07:34:50;100814.78;;;18.12;83.04
18533;BME280;9396;51.510;11.934;2022-09-06T07:37:17;100802.97;;;18.34;82.89
18533;BME280;9396;51.510;11.934;2022-09-06T07:39:45;100801.06;;;18.07;83.21
18533;BME280;9396;51.510;11.934;2022-09-06T07:42:12;100790.00;;;18.23;82.72
18533;BME280;9396;51.510;11.934;2022-09-06T07:44:40;100790.47;;;18.27;82.62
18533;BME280;9396;51.510;11.934;2022-09-06T07:47:07;100796.69;;;18.27;82.31
18533;BME280;9396;51.510;11.934;2022-09-06T07:49:34;100778.44;;;18.23;82.88
18533;BME280;9396;51.510;11.934;2022-09-06T07:52:01;100791.34;;;18.34;82.23
18533;BME280;9396;51.510;11.934;2022-09-06T07:54:28;100792.72;;;18.23;82.31
18533;BME280;9396;51.510;11.934;2022-09-06T07:56:56;100788.72;;;18.40;82.48
18533;BME280;9396;51.510;11.934;2022-09-06T07:59:23;100797.78;;;18.33;81.87
18533;BME280;9396;51.510;11.934;2022-09-06T08:01:49;100802.06;;;18.27;82.48
18533;BME280;9396;51.510;11.934;2022-09-06T08:04:17;100806.44;;;18.28;82.92
18533;BME280;9396;51.510;11.934;2022-09-06T08:06:45;100800.44;;;18.26;82.87
18533;BME280;9396;51.510;11.934;2022-09-06T08:09:12;100804.13;;;18.46;82.52
18533;BME280;9396;51.510;11.934;2022-09-06T08:11:39;100808.88;;;18.65;81.69
18533;BME280;9396;51.510;11.934;2022-09-06T08:14:07;100789.13;;;18.58;81.56
18533;BME280;9396;51.510;11.934;2022-09-06T08:16:36;100783.16;;;18.69;81.57
18533;BME280;9396;51.510;11.934;2022-09-06T08:19:05;100784.69;;;18.78;81.12
18533;BME280;9396;51.510;11.934;2022-09-06T08:21:33;100780.13;;;18.79;80.75
18533;BME280;9396;51.510;11.934;2022-09-06T08:24:04;100774.53;;;18.80;81.38
18533;BME280;9396;51.510;11.934;2022-09-06T08:26:33;100773.66;;;19.07;80.70
18533;BME280;9396;51.510;11.934;2022-09-06T08:29:02;100776.91;;;18.96;80.43
18533;BME280;9396;51.510;11.934;2022-09-06T08:31:32;100777.81;;;19.10;80.60
18533;BME280;9396;51.510;11.934;2022-09-06T08:33:59;100780.69;;;19.02;80.43
18533;BME280;9396;51.510;11.934;2022-09-06T08:36:27;100784.75;;;18.85;81.25
18533;BME280;9396;51.510;11.934;2022-09-06T08:38:55;100715.56;;;18.64;81.32
18533;BME280;9396;51.510;11.934;2022-09-06T08:41:25;100726.72;;;18.95;80.50
18533;BME280;9396;51.510;11.934;2022-09-06T08:43:53;100770.75;;;19.43;79.94
18533;BME280;9396;51.510;11.934;2022-09-06T08:46:26;100771.66;;;19.63;79.48
18533;BME280;9396;51.510;11.934;2022-09-06T08:48:57;100760.09;;;20.02;78.52
18533;BME280;9396;51.510;11.934;2022-09-06T08:51:53;100765.94;;;20.32;77.10
18533;BME280;9396;51.510;11.934;2022-09-06T08:54:29;100763.63;;;20.81;79.00
18533;BME280;9396;51.510;11.934;2022-09-06T08:57:03;100756.88;;;21.22;77.09
18533;BME280;9396;51.510;11.934;2022-09-06T08:59:36;100757.94;;;21.21;74.14
18533;BME280;9396;51.510;11.934;2022-09-06T09:02:10;100748.84;;;21.47;74.26
18533;BME280;9396;51.510;11.934;2022-09-06T09:04:41;100738.41;;;21.51;75.02
18533;BME280;9396;51.510;11.934;2022-09-06T09:07:22;100727.28;;;21.65;73.88
18533;BME280;9396;51.510;11.934;2022-09-06T09:09:51;100725.34;;;21.79;73.20
18533;BME280;9396;51.510;11.934;2022-09-06T09:12:21;100725.97;;;21.81;72.95
18533;BME280;9396;51.510;11.934;2022-09-06T09:14:52;100721.13;;;21.52;73.45
18533;BME280;9396;51.510;11.934;2022-09-06T09:17:23;100726.78;;;21.44;73.92
18533;BME280;9396;51.510;11.934;2022-09-06T09:19:52;100721.63;;;21.36;74.54
18533;BME280;9396;51.510;11.934;2022-09-06T09:22:19;100720.75;;;21.48;74.29
18533;BME280;9396;51.510;11.934;2022-09-06T09:24:47;100651.25;;;20.91;75.28
18533;BME280;9396;51.510;11.934;2022-09-06T09:27:17;100712.00;;;21.40;74.46
18533;BME280;9396;51.510;11.934;2022-09-06T09:29:59;100712.97;;;21.58;75.23
18533;BME280;9396;51.510;11.934;2022-09-06T09:32:31;100713.81;;;21.59;73.99
18533;BME280;9396;51.510;11.934;2022-09-06T09:35:22;100700.09;;;21.85;73.98
18533;BME280;9396;51.510;11.934;2022-09-06T09:37:56;100700.25;;;21.59;74.39
18533;BME280;9396;51.510;11.934;2022-09-06T09:40:29;100693.44;;;21.50;74.52
18533;BME280;9396;51.510;11.934;2022-09-06T09:43:09;100682.34;;;21.58;74.47
18533;BME280;9396;51.510;11.934;2022-09-06T09:45:36;100687.59;;;21.53;74.28
18533;BME280;9396;51.510;11.934;2022-09-06T09:48:19;100682.44;;;21.45;75.05
18533;BME280;9396;51.510;11.934;2022-09-06T09:50:49;100677.81;;;21.52;74.56
18533;BME280;9396;51.510;11.934;2022-09-06T09:53:17;100666.31;;;21.56;75.09
18533;BME280;9396;51.510;11.934;2022-09-06T09:55:45;100659.81;;;21.64;74.50
18533;BME280;9396;51.510;11.934;2022-09-06T09:58:23;100662.41;;;21.83;74.86
18533;BME280;9396;51.510;11.934;2022-09-06T10:01:09;100659.69;;;22.08;74.35
18533;BME280;9396;51.510;11.934;2022-09-06T10:03:37;100577.41;;;21.53;73.72
18533;BME280;9396;51.510;11.934;2022-09-06T10:06:07;100649.53;;;22.03;74.09
18533;BME280;9396;51.510;11.934;2022-09-06T10:08:38;100642.97;;;22.11;74.15
18533;BME280;9396;51.510;11.934;2022-09-06T10:11:10;100640.31;;;22.29;74.13
18533;BME280;9396;51.510;11.934;2022-09-06T10:13:37;100641.28;;;22.34;74.07
18533;BME280;9396;51.510;11.934;2022-09-06T10:16:06;100637.91;;;22.39;74.26
18533;BME280;9396;51.510;11.934;2022-09-06T10:18:35;100645.28;;;22.50;73.66
18533;BME280;9396;51.510;11.934;2022-09-06T10:21:05;100621.09;;;22.55;73.75
18533;BME280;9396;51.510;11.934;2022-09-06T10:23:39;100638.88;;;22.69;73.44
18533;BME280;9396;51.510;11.934;2022-09-06T10:26:17;100640.41;;;22.77;73.77
18533;BME280;9396;51.510;11.934;2022-09-06T10:28:52;100649.09;;;22.67;73.58
18533;BME280;9396;51.510;11.934;2022-09-06T10:31:45;100651.44;;;22.64;73.87
18533;BME280;9396;51.510;11.934;2022-09-06T10:34:39;100639.63;;;22.76;73.92
18533;BME280;9396;51.510;11.934;2022-09-06T10:37:19;100632.72;;;22.92;73.87
18533;BME280;9396;51.510;11.934;2022-09-06T10:39:54;100651.63;;;22.98;73.77
18533;BME280;9396;51.510;11.934;2022-09-06T10:42:28;100660.00;;;22.97;73.26
18533;BME280;9396;51.510;11.934;2022-09-06T10:45:12;100664.31;;;23.04;73.38
18533;BME280;9396;51.510;11.934;2022-09-06T10:47:53;100656.16;;;23.04;73.61
18533;BME280;9396;51.510;11.934;2022-09-06T10:50:21;100660.75;;;23.04;73.49
18533;BME280;9396;51.510;11.934;2022-09-06T10:52:53;100663.59;;;23.09;73.60
18533;BME280;9396;51.510;11.934;2022-09-06T10:55:20;100667.59;;;23.24;73.50
18533;BME280;9396;51.510;11.934;2022-09-06T10:57:52;100666.88;;;23.47;73.72
18533;BME280;9396;51.510;11.934;2022-09-06T11:02:53;100669.31;;;23.78;72.50
18533;BME280;9396;51.510;11.934;2022-09-06T11:05:28;100675.94;;;23.82;72.26
18533;BME280;9396;51.510;11.934;2022-09-06T11:07:59;100676.25;;;23.63;72.07
18533;BME280;9396;51.510;11.934;2022-09-06T11:10:29;100673.88;;;23.55;72.96
18533;BME280;9396;51.510;11.934;2022-09-06T11:13:02;100677.09;;;23.63;72.57
18533;BME280;9396;51.510;11.934;2022-09-06T11:15:35;100675.34;;;23.69;72.91
18533;BME280;9396;51.510;11.934;2022-09-06T11:18:12;100679.56;;;23.65;72.23
18533;BME280;9396;51.510;11.934;2022-09-06T11:20:45;100681.22;;;23.66;71.94
18533;BME280;9396;51.510;11.934;2022-09-06T11:23:35;100677.91;;;23.64;72.35
18533;BME280;9396;51.510;11.934;2022-09-06T11:26:21;100675.53;;;23.56;72.36
18533;BME280;9396;51.510;11.934;2022-09-06T11:28:56;100682.41;;;23.58;73.01
18533;BME280;9396;51.510;11.934;2022-09-06T11:31:25;100682.88;;;23.67;72.56
18533;BME280;9396;51.510;11.934;2022-09-06T11:34:05;100683.25;;;23.70;72.15
18533;BME280;9396;51.510;11.934;2022-09-06T11:36:37;100670.25;;;23.72;72.61
18533;BME280;9396;51.510;11.934;2022-09-06T11:39:07;100666.38;;;23.80;72.41
18533;BME280;9396;51.510;11.934;2022-09-06T11:41:37;100664.59;;;23.85;72.61
18533;BME280;9396;51.510;11.934;2022-09-06T11:44:06;100658.75;;;24.00;72.07
18533;BME280;9396;51.510;11.934;2022-09-06T11:46:58;100663.38;;;24.11;72.22
18533;BME280;9396;51.510;11.934;2022-09-06T11:49:31;100655.34;;;24.16;72.02
18533;BME280;9396;51.510;11.934;2022-09-06T11:51:58;100655.94;;;24.18;72.30
18533;BME280;9396;51.510;11.934;2022-09-06T11:54:40;100658.66;;;24.18;72.66
18533;BME280;9396;51.510;11.934;2022-09-06T11:57:13;100658.06;;;24.27;73.51
18533;BME280;9396;51.510;11.934;2022-09-06T11:59:48;100657.47;;;24.37;74.20
18533;BME280;9396;51.510;11.934;2022-09-06T12:02:44;100649.44;;;24.42;73.93
18533;BME280;9396;51.510;11.934;2022-09-06T12:05:19;100648.47;;;24.25;73.95
18533;BME280;9396;51.510;11.934;2022-09-06T12:08:22;100641.84;;;24.21;73.91
18533;BME280;9396;51.510;11.934;2022-09-06T12:11:07;100638.09;;;24.22;74.71
18533;BME280;9396;51.510;11.934;2022-09-06T12:13:52;100634.78;;;24.20;74.37
18533;BME280;9396;51.510;11.934;2022-09-06T12:16:19;100629.09;;;24.21;74.54
18533;BME280;9396;51.510;11.934;2022-09-06T12:18:54;100619.16;;;24.27;73.74
18533;BME280;9396;51.510;11.934;2022-09-06T12:21:45;100613.03;;;24.31;73.80
18533;BME280;9396;51.510;11.934;2022-09-06T12:24:51;100619.03;;;24.33;74.21
18533;BME280;9396;51.510;11.934;2022-09-06T12:27:20;100610.88;;;24.22;74.26
18533;BME280;9396;51.510;11.934;2022-09-06T12:29:53;100600.16;;;24.15;74.54
18533;BME280;9396;51.510;11.934;2022-09-06T12:32:24;100596.94;;;24.18;74.65
18533;BME280;9396;51.510;11.934;2022-09-06T12:34:52;100590.66;;;24.18;74.64
18533;BME280;9396;51.510;11.934;2022-09-06T12:37:30;100590.44;;;24.19;74.34
18533;BME280;9396;51.510;11.934;2022-09-06T12:39:58;100586.66;;;24.20;75.08
18533;BME280;9396;51.510;11.934;2022-09-06T12:42:26;100582.03;;;24.21;74.20
18533;BME280;9396;51.510;11.934;2022-09-06T12:44:54;100581.09;;;24.27;74.30
18533;BME280;9396;51.510;11.934;2022-09-06T12:47:24;100571.38;;;24.31;73.67
18533;BME280;9396;51.510;11.934;2022-09-06T12:50:06;100568.78;;;24.36;73.32
18533;BME280;9396;51.510;11.934;2022-09-06T12:52:43;100570.56;;;24.42;74.10
18533;BME280;9396;51.510;11.934;2022-09-06T12:55:14;100570.66;;;24.47;73.99
18533;BME280;9396;51.510;11.934;2022-09-06T12:57:48;100562.34;;;24.54;73.21
18533;BME280;9396;51.510;11.934;2022-09-06T13:00:15;100566.94;;;24.53;73.63
18533;BME280;9396;51.510;11.934;2022-09-06T13:02:50;100565.81;;;24.49;72.32
18533;BME280;9396;51.510;11.934;2022-09-06T13:05:19;100570.66;;;24.47;70.88
18533;BME280;9396;51.510;11.934;2022-09-06T13:07:49;100562.38;;;24.42;71.32
18533;BME280;9396;51.510;11.934;2022-09-06T13:10:20;100557.75;;;24.42;72.36
18533;BME280;9396;51.510;11.934;2022-09-06T13:12:49;100559.66;;;24.42;72.15